createdAt,value
2018-07-04T00:01:25.220Z,100997.22
2018-07-04T00:04:11.904Z,100996.41
2018-07-04T00:06:58.425Z,101001.19
2018-07-04T00:09:44.960Z,100999.99
2018-07-04T00:12:31.267Z,100997.41
2018-07-04T00:15:17.724Z,101002.14
2018-07-04T00:18:04.233Z,101009.04
2018-07-04T00:20:50.819Z,100997.48
2018-07-04T00:23:37.417Z,100997.95
2018-07-04T00:26:23.916Z,101006.64
2018-07-04T00:29:10.416Z,101007.13
2018-07-04T00:31:56.823Z,101002.00
2018-07-04T00:34:43.373Z,101000.70
2018-07-04T00:37:29.576Z,101000.70
2018-07-04T00:40:16.004Z,101000.73
2018-07-04T00:43:02.268Z,100997.75
2018-07-04T00:45:48.544Z,100992.19
2018-07-04T00:48:34.888Z,100993.96
2018-07-04T00:51:21.457Z,100990.57
2018-07-04T00:54:07.896Z,101000.92
2018-07-04T00:56:54.669Z,100996.05
2018-07-04T00:59:41.256Z,101000.67
2018-07-04T01:02:27.740Z,100998.28
2018-07-04T01:05:14.492Z,101006.52
2018-07-04T01:08:00.988Z,100998.39
2018-07-04T01:10:47.408Z,100999.25
2018-07-04T01:13:33.656Z,100999.30
2018-07-04T01:16:20.212Z,101000.14
2018-07-04T01:19:06.502Z,100998.87
2018-07-04T01:21:52.728Z,100995.86
2018-07-04T01:24:39.255Z,100999.31
2018-07-04T01:27:25.559Z,100997.59
2018-07-04T01:30:12.132Z,100997.60
2018-07-04T01:32:58.545Z,100990.31
2018-07-04T01:35:45.087Z,100989.89
2018-07-04T01:38:31.347Z,100990.73
2018-07-04T01:41:17.564Z,100989.44
2018-07-04T01:44:04.104Z,100985.59
2018-07-04T01:46:50.468Z,100987.28
2018-07-04T01:49:36.892Z,100974.40
2018-07-04T01:52:23.256Z,100970.09
2018-07-04T01:55:09.960Z,100972.69
2018-07-04T01:57:56.485Z,100970.98
2018-07-04T02:00:42.868Z,100971.41
2018-07-04T02:03:29.280Z,100966.69
2018-07-04T02:06:15.820Z,100975.72
2018-07-04T02:09:02.358Z,100978.27
2018-07-04T02:11:48.879Z,100969.70
2018-07-04T02:14:35.235Z,100972.28
2018-07-04T02:17:21.461Z,100971.84
2018-07-04T02:20:07.896Z,100963.69
2018-07-04T02:22:54.356Z,100967.96
2018-07-04T02:25:40.995Z,100972.70
2018-07-04T02:28:27.240Z,100968.38
2018-07-04T02:31:13.632Z,100961.52
2018-07-04T02:34:00.169Z,100963.22
2018-07-04T02:36:46.716Z,100953.36
2018-07-04T02:39:33.293Z,100954.67
2018-07-04T02:42:19.860Z,100956.38
2018-07-04T02:45:06.365Z,100966.22
2018-07-04T02:47:52.735Z,100972.20
2018-07-04T02:50:39.133Z,100967.93
2018-07-04T02:53:25.348Z,100960.18
2018-07-04T02:56:11.721Z,100964.05
2018-07-04T02:58:58.001Z,100963.63
2018-07-04T03:01:44.285Z,100968.77
2018-07-04T03:04:30.581Z,100962.73
2018-07-04T03:07:17.016Z,100957.14
2018-07-04T03:10:03.368Z,100960.97
2018-07-04T03:12:49.771Z,100957.05
2018-07-04T03:15:36.061Z,100951.45
2018-07-04T03:18:22.493Z,100951.86
2018-07-04T03:21:08.891Z,100949.28
2018-07-04T03:23:55.305Z,100954.02
2018-07-04T03:26:41.568Z,100953.14
2018-07-04T03:29:27.879Z,100962.17
2018-07-04T03:32:14.333Z,100954.00
2018-07-04T03:35:00.766Z,100947.56
2018-07-04T03:37:47.052Z,100945.80
2018-07-04T03:40:33.592Z,100946.61
2018-07-04T03:43:19.909Z,100944.05
2018-07-04T03:46:06.384Z,100941.44
2018-07-04T03:48:53.182Z,100947.48
2018-07-04T03:51:39.620Z,100947.11
2018-07-04T03:54:26.083Z,100948.90
2018-07-04T03:57:12.573Z,100945.45
2018-07-04T03:59:59.040Z,100945.45
2018-07-04T04:02:45.585Z,100948.87
2018-07-04T04:05:32.072Z,100952.23
2018-07-04T04:08:18.479Z,100939.73
2018-07-04T04:11:04.840Z,100943.95
2018-07-04T04:13:51.188Z,100944.34
2018-07-04T04:16:37.656Z,100940.08
2018-07-04T04:19:29.627Z,100940.50
2018-07-04T04:22:16.516Z,100937.88
2018-07-04T04:25:02.772Z,100947.37
2018-07-04T04:27:49.292Z,100947.81
2018-07-04T04:30:35.664Z,100950.02
2018-07-04T04:33:22.183Z,100941.99
2018-07-04T04:36:08.832Z,100946.35
2018-07-04T04:38:55.096Z,100938.68
2018-07-04T04:41:41.519Z,100940.03
2018-07-04T04:44:27.940Z,100937.48
2018-07-04T04:47:14.140Z,100944.37
2018-07-04T04:50:00.400Z,100948.66
2018-07-04T04:52:46.944Z,100951.64
2018-07-04T04:55:33.202Z,100949.45
2018-07-04T04:58:19.416Z,100947.77
2018-07-04T05:01:05.499Z,100943.47
2018-07-04T05:03:51.780Z,100947.78
2018-07-04T05:06:38.184Z,100938.76
2018-07-04T05:09:24.483Z,100940.88
2018-07-04T05:12:10.765Z,100933.60
2018-07-04T05:14:57.211Z,100936.59
2018-07-04T05:17:43.648Z,100941.68
2018-07-04T05:20:30.244Z,100942.94
2018-07-04T05:23:16.650Z,100945.56
2018-07-04T05:26:03.184Z,100941.69
2018-07-04T05:28:49.484Z,100943.45
2018-07-04T05:31:36.659Z,100935.24
2018-07-04T05:34:23.160Z,100939.98
2018-07-04T05:37:09.499Z,100944.21
2018-07-04T05:39:56.152Z,100939.50
2018-07-04T05:42:42.528Z,100938.66
2018-07-04T05:45:29.216Z,100940.23
2018-07-04T05:48:15.681Z,100935.08
2018-07-04T05:51:02.273Z,100931.47
2018-07-04T05:53:48.816Z,100927.37
2018-07-04T05:56:35.279Z,100936.38
2018-07-04T05:59:21.759Z,100928.01
2018-07-04T06:02:08.212Z,100925.48
2018-07-04T06:04:54.817Z,100922.82
2018-07-04T06:07:41.164Z,100917.12
2018-07-04T06:10:27.491Z,100918.67
2018-07-04T06:13:13.980Z,100919.02
2018-07-04T06:16:00.348Z,100919.20
2018-07-04T06:18:46.700Z,100918.64
2018-07-04T06:21:33.184Z,100917.12
2018-07-04T06:24:19.640Z,100911.13
2018-07-04T06:27:06.183Z,100907.66
2018-07-04T06:29:52.692Z,100905.73
2018-07-04T06:32:39.212Z,100900.27
2018-07-04T06:35:25.353Z,100909.92
2018-07-04T06:37:59.311Z,100905.08
2018-07-04T06:40:27.083Z,100907.15
2018-07-04T06:42:54.828Z,100912.39
2018-07-04T06:45:22.604Z,100906.22
2018-07-04T06:47:50.356Z,100913.52
2018-07-04T06:50:18.133Z,100918.89
2018-07-04T06:52:45.889Z,100908.33
2018-07-04T06:55:13.657Z,100910.41
2018-07-04T06:57:41.413Z,100908.09
2018-07-04T07:00:09.180Z,100902.41
2018-07-04T07:02:36.932Z,100904.00
2018-07-04T07:05:17.131Z,100898.88
2018-07-04T07:08:03.666Z,100902.23
2018-07-04T07:10:50.122Z,100895.75
2018-07-04T07:13:36.469Z,100899.86
2018-07-04T07:16:22.844Z,100897.77
2018-07-04T07:19:09.868Z,100894.25
2018-07-04T07:21:56.277Z,100896.75
2018-07-04T07:24:42.665Z,100901.81
2018-07-04T07:27:29.142Z,100896.81
2018-07-04T07:30:15.428Z,100895.56
2018-07-04T07:33:01.768Z,100898.27
2018-07-04T07:35:48.223Z,100892.08
2018-07-04T07:38:34.440Z,100889.91
2018-07-04T07:41:20.700Z,100891.79
2018-07-04T07:44:07.085Z,100891.37
2018-07-04T07:46:53.589Z,100889.55
2018-07-04T07:49:39.803Z,100883.38
2018-07-04T07:52:26.292Z,100890.62
2018-07-04T07:55:13.148Z,100883.59
2018-07-04T07:57:59.619Z,100875.88
2018-07-04T08:00:46.329Z,100875.38
2018-07-04T08:03:32.744Z,100874.09
2018-07-04T08:06:19.256Z,100872.91
2018-07-04T08:09:05.673Z,100875.21
2018-07-04T08:11:52.622Z,100872.33
2018-07-04T08:14:39.495Z,100870.28
2018-07-04T08:17:25.892Z,100869.91
2018-07-04T08:20:12.336Z,100865.31
2018-07-04T08:22:59.291Z,100861.32
2018-07-04T08:25:45.760Z,100866.81
2018-07-04T08:28:32.536Z,100858.95
2018-07-04T08:31:18.948Z,100860.55
2018-07-04T08:34:06.174Z,100860.40
2018-07-04T08:36:52.871Z,100858.47
2018-07-04T08:39:39.584Z,100859.21
2018-07-04T08:42:26.349Z,100859.92
2018-07-04T08:45:14.040Z,100855.16
2018-07-04T08:48:00.476Z,100853.25
2018-07-04T08:50:46.926Z,100852.94
2018-07-04T08:53:33.532Z,100845.27
2018-07-04T08:56:19.972Z,100843.52
2018-07-04T08:59:06.384Z,100844.89
2018-07-04T09:01:52.867Z,100842.32
2018-07-04T09:04:39.361Z,100846.77
2018-07-04T09:07:25.928Z,100849.09
2018-07-04T09:10:12.248Z,100845.46
2018-07-04T09:12:58.760Z,100843.98
2018-07-04T09:15:44.968Z,100842.23
2018-07-04T09:18:31.256Z,100839.66
2018-07-04T09:21:17.556Z,100834.64
2018-07-04T09:24:03.985Z,100837.56
2018-07-04T09:26:50.468Z,100838.27
2018-07-04T09:29:36.897Z,100843.16
2018-07-04T09:32:23.479Z,100843.20
2018-07-04T09:35:10.217Z,100834.92
2018-07-04T09:37:56.906Z,100835.52
2018-07-04T09:40:43.358Z,100833.55
2018-07-04T09:43:29.920Z,100827.78
2018-07-04T09:46:16.096Z,100830.86
2018-07-04T09:49:02.468Z,100823.99
2018-07-04T09:51:48.807Z,100820.09
2018-07-04T09:54:35.325Z,100825.70
2018-07-04T09:57:21.692Z,100825.25
2018-07-04T10:00:07.981Z,100823.28
2018-07-04T10:02:54.175Z,100821.17
2018-07-04T10:05:40.585Z,100821.56
2018-07-04T10:08:27.983Z,100819.94
2018-07-04T10:11:14.403Z,100823.38
2018-07-04T10:14:00.720Z,100817.78
2018-07-04T10:16:47.247Z,100816.93
2018-07-04T10:19:33.717Z,100807.35
2018-07-04T10:22:20.485Z,100815.26
2018-07-04T10:25:07.260Z,100811.21
2018-07-04T10:27:53.616Z,100807.77
2018-07-04T10:30:40.261Z,100807.28
2018-07-04T10:33:26.600Z,100808.23
2018-07-04T10:36:13.016Z,100803.36
2018-07-04T10:38:59.605Z,100801.31
2018-07-04T10:41:45.842Z,100797.69
2018-07-04T10:44:32.083Z,100793.46
2018-07-04T10:47:18.812Z,100796.27
2018-07-04T10:50:05.460Z,100788.58
2018-07-04T10:52:52.425Z,100786.79
2018-07-04T10:55:38.952Z,100781.73
2018-07-04T10:58:25.753Z,100789.23
2018-07-04T11:01:12.374Z,100786.44
2018-07-04T11:03:59.156Z,100778.73
2018-07-04T11:06:45.707Z,100773.36
2018-07-04T11:09:32.274Z,100775.56
2018-07-04T11:12:18.697Z,100777.05
2018-07-04T11:15:05.272Z,100776.59
2018-07-04T11:17:51.949Z,100774.64
2018-07-04T11:20:38.417Z,100772.55
2018-07-04T11:23:24.913Z,100769.83
2018-07-04T11:26:11.470Z,100771.97
2018-07-04T11:28:57.883Z,100768.13
2018-07-04T11:31:44.100Z,100762.54
2018-07-04T11:34:31.360Z,100757.22
2018-07-04T11:37:17.880Z,100757.49
2018-07-04T11:40:04.500Z,100763.39
2018-07-04T11:42:51.065Z,100754.20
2018-07-04T11:45:37.601Z,100752.57
2018-07-04T11:48:11.742Z,100746.04
2018-07-04T11:50:39.504Z,100735.30
2018-07-04T11:53:07.299Z,100741.84
2018-07-04T11:55:35.056Z,100734.41
2018-07-04T11:58:02.816Z,100733.66
2018-07-04T12:00:30.561Z,100732.69
2018-07-04T12:02:58.328Z,100730.92
2018-07-04T12:05:38.556Z,100728.81
2018-07-04T12:08:12.484Z,100736.19
2018-07-04T12:10:40.227Z,100729.28
2018-07-04T12:13:08.000Z,100732.56
2018-07-04T12:15:35.748Z,100728.07
2018-07-04T12:18:03.521Z,100727.42
2018-07-04T12:20:31.272Z,100724.02
2018-07-04T12:22:59.036Z,100717.72
2018-07-04T12:25:26.812Z,100714.73
2018-07-04T12:27:54.576Z,100713.47
2018-07-04T12:30:22.592Z,100717.73
2018-07-04T12:32:50.882Z,100704.39
2018-07-04T12:35:19.137Z,100707.97
2018-07-04T12:37:47.369Z,100712.29
2018-07-04T12:40:15.519Z,100701.30
2018-07-04T12:42:43.826Z,100697.09
2018-07-04T12:45:11.608Z,100697.47
2018-07-04T12:47:39.372Z,100701.90
2018-07-04T12:50:20.009Z,100699.06
2018-07-04T12:52:50.844Z,100697.20
2018-07-04T12:55:37.552Z,100693.00
2018-07-04T12:58:24.261Z,100688.84
2018-07-04T13:01:10.521Z,100690.00
2018-07-04T13:03:56.952Z,100683.28
2018-07-04T13:06:43.296Z,100686.75
2018-07-04T13:09:29.532Z,100684.23
2018-07-04T13:12:15.779Z,100684.16
2018-07-04T13:15:02.160Z,100679.23
2018-07-04T13:17:48.804Z,100682.98
2018-07-04T13:20:35.294Z,100675.92
2018-07-04T13:23:21.636Z,100676.72
2018-07-04T13:26:09.300Z,100678.94
2018-07-04T13:28:55.883Z,100678.55
2018-07-04T13:31:42.484Z,100677.70
2018-07-04T13:34:28.892Z,100672.34
2018-07-04T13:37:15.360Z,100674.13
2018-07-04T13:40:01.865Z,100670.31
2018-07-04T13:42:48.356Z,100669.46
2018-07-04T13:45:34.597Z,100668.91
2018-07-04T13:48:20.844Z,100659.10
2018-07-04T13:51:07.332Z,100668.95
2018-07-04T13:53:53.876Z,100661.98
2018-07-04T13:56:40.390Z,100656.38
2018-07-04T13:59:26.720Z,100661.58
2018-07-04T14:02:13.059Z,100661.41
2018-07-04T14:04:59.429Z,100659.64
2018-07-04T14:07:46.219Z,100659.73
2018-07-04T14:10:32.629Z,100661.48
2018-07-04T14:13:19.301Z,100662.40
2018-07-04T14:16:05.689Z,100661.55
2018-07-04T14:18:52.099Z,100655.35
2018-07-04T14:21:38.496Z,100655.51
2018-07-04T14:24:24.803Z,100652.43
2018-07-04T14:27:11.368Z,100651.89
2018-07-04T14:29:57.536Z,100652.38
2018-07-04T14:32:43.804Z,100658.60
2018-07-04T14:35:30.184Z,100655.59
2018-07-04T14:38:16.557Z,100654.20
2018-07-04T14:41:02.930Z,100645.16
2018-07-04T14:43:49.192Z,100641.13
2018-07-04T14:46:35.629Z,100637.25
2018-07-04T14:49:21.940Z,100638.67
2018-07-04T14:52:08.673Z,100637.91
2018-07-04T14:54:54.909Z,100639.37
2018-07-04T14:57:41.365Z,100640.56
2018-07-04T15:00:27.879Z,100634.03
2018-07-04T15:03:14.451Z,100630.16
2018-07-04T15:06:00.950Z,100627.22
2018-07-04T15:08:47.393Z,100624.08
2018-07-04T15:11:33.801Z,100617.75
2018-07-04T15:14:20.410Z,100617.70
2018-07-04T15:17:06.812Z,100613.73
2018-07-04T15:19:53.333Z,100616.84
2018-07-04T15:22:39.711Z,100615.33
2018-07-04T15:25:26.184Z,100611.06
2018-07-04T15:28:12.654Z,100611.57
2018-07-04T15:30:59.080Z,100612.73
2018-07-04T15:33:45.696Z,100613.98
2018-07-04T15:36:32.236Z,100612.14
2018-07-04T15:39:18.681Z,100608.72
2018-07-04T15:42:05.088Z,100607.97
2018-07-04T15:44:51.567Z,100607.81
2018-07-04T15:47:37.873Z,100604.39
2018-07-04T15:50:24.420Z,100601.09
2018-07-04T15:53:10.863Z,100598.93
2018-07-04T15:55:57.289Z,100597.70
2018-07-04T15:58:43.609Z,100596.83
2018-07-04T16:01:30.141Z,100599.00
2018-07-04T16:04:16.536Z,100595.44
2018-07-04T16:07:02.995Z,100590.38
2018-07-04T16:09:49.344Z,100590.33
2018-07-04T16:12:35.832Z,100591.44
2018-07-04T16:15:22.322Z,100593.89
2018-07-04T16:18:08.892Z,100593.73
2018-07-04T16:20:55.081Z,100590.33
2018-07-04T16:23:41.484Z,100590.19
2018-07-04T16:26:27.823Z,100589.91
2018-07-04T16:29:14.340Z,100584.44
2018-07-04T16:32:00.788Z,100587.94
2018-07-04T16:34:47.068Z,100583.23
2018-07-04T16:37:33.784Z,100578.70
2018-07-04T16:40:20.228Z,100572.80
2018-07-04T16:43:06.507Z,100574.20
2018-07-04T16:45:53.321Z,100569.86
2018-07-04T16:48:39.692Z,100566.75
2018-07-04T16:51:26.216Z,100560.30
2018-07-04T16:54:12.752Z,100559.15
2018-07-04T16:56:59.216Z,100562.11
2018-07-04T16:59:45.673Z,100560.24
2018-07-04T17:02:32.176Z,100559.61
2018-07-04T17:05:18.860Z,100566.54
2018-07-04T17:08:05.391Z,100568.12
2018-07-04T17:10:51.761Z,100563.87
2018-07-04T17:13:38.212Z,100561.33
2018-07-04T17:16:24.736Z,100556.83
2018-07-04T17:19:11.430Z,100568.97
2018-07-04T17:21:57.996Z,100554.46
2018-07-04T17:24:44.501Z,100554.66
2018-07-04T17:27:30.998Z,100556.98
2018-07-04T17:30:17.543Z,100561.34
2018-07-04T17:33:03.885Z,100554.28
2018-07-04T17:35:50.328Z,100554.35
2018-07-04T17:38:36.634Z,100553.29
2018-07-04T17:41:22.992Z,100552.19
2018-07-04T17:44:09.528Z,100552.49
2018-07-04T17:46:55.807Z,100549.41
2018-07-04T17:49:42.360Z,100546.98
2018-07-04T17:52:28.808Z,100557.06
2018-07-04T17:55:15.165Z,100555.76
2018-07-04T17:58:01.769Z,100547.33
2018-07-04T18:00:48.116Z,100544.78
2018-07-04T18:03:34.668Z,100546.60
2018-07-04T18:06:21.075Z,100551.22
2018-07-04T18:09:07.488Z,100552.70
2018-07-04T18:11:54.015Z,100550.38
2018-07-04T18:14:40.320Z,100546.54
2018-07-04T18:17:26.687Z,100550.48
2018-07-04T18:20:13.196Z,100546.52
2018-07-04T18:22:59.596Z,100544.56
2018-07-04T18:25:45.956Z,100546.30
2018-07-04T18:28:32.352Z,100546.31
2018-07-04T18:31:18.805Z,100539.46
2018-07-04T18:34:05.037Z,100541.42
2018-07-04T18:36:51.505Z,100542.61
2018-07-04T18:39:37.884Z,100537.92
2018-07-04T18:42:24.393Z,100537.81
2018-07-04T18:45:10.811Z,100539.79
2018-07-04T18:47:57.120Z,100539.13
2018-07-04T18:50:43.756Z,100549.72
2018-07-04T18:53:29.975Z,100546.31
2018-07-04T18:56:16.279Z,100543.88
2018-07-04T18:59:02.730Z,100544.08
2018-07-04T19:01:48.963Z,100536.44
2018-07-04T19:04:35.304Z,100539.83
2018-07-04T19:07:21.824Z,100534.66
2018-07-04T19:10:09.325Z,100528.28
2018-07-04T19:12:55.970Z,100535.50
2018-07-04T19:15:42.240Z,100539.67
2018-07-04T19:18:28.660Z,100540.05
2018-07-04T19:21:15.293Z,100542.02
2018-07-04T19:24:01.885Z,100548.58
2018-07-04T19:26:48.524Z,100552.19
2018-07-04T19:29:35.063Z,100555.42
2018-07-04T19:32:21.508Z,100559.02
2018-07-04T19:35:07.891Z,100562.22
2018-07-04T19:37:54.136Z,100565.58
2018-07-04T19:40:40.368Z,100572.14
2018-07-04T19:43:26.785Z,100575.69
2018-07-04T19:46:13.048Z,100581.33
2018-07-04T19:48:59.431Z,100585.59
2018-07-04T19:51:45.709Z,100589.37
2018-07-04T19:54:31.971Z,100585.16
2018-07-04T19:57:18.672Z,100587.69
2018-07-04T20:00:05.060Z,100587.93
2018-07-04T20:02:51.713Z,100598.10
2018-07-04T20:05:38.330Z,100596.44
2018-07-04T20:08:24.871Z,100602.38
2018-07-04T20:11:11.332Z,100609.48
2018-07-04T20:13:57.926Z,100606.42
2018-07-04T20:16:44.392Z,100610.12
2018-07-04T20:19:30.856Z,100606.14
2018-07-04T20:22:17.255Z,100608.23
2018-07-04T20:25:03.403Z,100605.63
2018-07-04T20:27:49.796Z,100613.02
2018-07-04T20:30:35.956Z,100608.44
2018-07-04T20:33:22.396Z,100605.47
2018-07-04T20:36:08.693Z,100607.05
2018-07-04T20:38:55.088Z,100610.89
2018-07-04T20:41:42.748Z,100606.14
2018-07-04T20:44:29.207Z,100613.32
2018-07-04T20:47:15.715Z,100613.59
2018-07-04T20:50:01.964Z,100615.58
2018-07-04T20:52:48.160Z,100614.27
2018-07-04T20:55:35.228Z,100621.66
2018-07-04T20:58:21.400Z,100620.69
2018-07-04T21:01:07.800Z,100618.34
2018-07-04T21:03:54.260Z,100614.98
2018-07-04T21:06:40.755Z,100616.60
2018-07-04T21:09:27.237Z,100623.35
2018-07-04T21:12:13.688Z,100625.67
2018-07-04T21:15:00.024Z,100619.26
2018-07-04T21:17:46.580Z,100625.59
2018-07-04T21:20:33.112Z,100620.26
2018-07-04T21:23:19.337Z,100616.81
2018-07-04T21:26:05.682Z,100617.30
2018-07-04T21:28:52.008Z,100615.08
2018-07-04T21:31:38.251Z,100618.44
2018-07-04T21:34:24.589Z,100617.06
2018-07-04T21:37:10.979Z,100618.36
2018-07-04T21:39:57.395Z,100620.18
2018-07-04T21:42:43.740Z,100617.17
2018-07-04T21:45:30.440Z,100619.75
2018-07-04T21:48:16.800Z,100622.60
2018-07-04T21:51:03.332Z,100627.74
2018-07-04T21:53:49.792Z,100631.86
2018-07-04T21:56:36.160Z,100631.01
2018-07-04T21:59:22.576Z,100623.58
2018-07-04T22:02:09.176Z,100624.16
2018-07-04T22:04:55.416Z,100626.42
2018-07-04T22:07:41.939Z,100626.23
2018-07-04T22:10:28.480Z,100629.27
2018-07-04T22:13:15.129Z,100632.14
2018-07-04T22:16:01.532Z,100632.41
2018-07-04T22:18:48.132Z,100642.48
2018-07-04T22:21:34.743Z,100638.03
2018-07-04T22:24:21.341Z,100638.20
2018-07-04T22:27:07.750Z,100633.81
2018-07-04T22:29:54.238Z,100631.63
2018-07-04T22:32:40.800Z,100634.53
2018-07-04T22:35:27.368Z,100630.91
2018-07-04T22:38:13.953Z,100627.16
2018-07-04T22:41:00.364Z,100632.12
2018-07-04T22:43:46.984Z,100637.42
2018-07-04T22:46:33.509Z,100636.56
2018-07-04T22:49:20.188Z,100632.66
2018-07-04T22:52:09.775Z,100635.42
2018-07-04T22:54:56.164Z,100653.01
2018-07-04T22:57:42.632Z,100660.53
2018-07-04T23:00:29.316Z,100655.41
2018-07-04T23:03:15.668Z,100655.00
2018-07-04T23:06:02.072Z,100655.48
2018-07-04T23:08:48.529Z,100655.72
2018-07-04T23:11:34.964Z,100658.28
2018-07-04T23:14:21.469Z,100664.34
2018-07-04T23:17:08.017Z,100661.80
2018-07-04T23:19:54.520Z,100665.65
2018-07-04T23:22:40.989Z,100669.38
2018-07-04T23:25:27.581Z,100672.05
2018-07-04T23:28:14.192Z,100675.58
2018-07-04T23:31:00.680Z,100676.77
2018-07-04T23:33:47.093Z,100667.77
2018-07-04T23:36:33.632Z,100662.23
2018-07-04T23:39:20.185Z,100664.55
2018-07-04T23:42:06.711Z,100664.42
2018-07-04T23:44:53.035Z,100666.03
2018-07-04T23:47:39.542Z,100665.18
2018-07-04T23:50:26.252Z,100666.92
2018-07-04T23:53:12.620Z,100672.67
2018-07-04T23:55:58.988Z,100670.75
2018-07-04T23:58:45.352Z,100661.54
